This is the latest recevied weather packets stored in our database for station/object OE-11344. If no packets are shown the sender has not sent any weather packets the latest 10 day(s).
| Time | Temp. | Humidity | Pressure | Rain* | Wind** | Luminosity | Snow |
|---|---|---|---|---|---|---|---|
| 1788077112 | 14.44° C | 67% | 854.2 hPa | 0 mm | - | 513 W/m² | - |
| 1788076511 | 13.89° C | 71% | 854.1 hPa | 0 mm | - | 483 W/m² | - |
| 1788075685 | 15° C | 69% | 853.8 hPa | 0 mm | - | 459 W/m² | - |
| 1788075311 | 15° C | 63% | 853.8 hPa | 0 mm | - | 429 W/m² | - |
| 1788074712 | 14.44° C | 68% | 853.8 hPa | 0 mm | - | 405 W/m² | - |
| 1788073885 | 13.89° C | 70% | 853.8 hPa | 0 mm | - | 374 W/m² | - |
| 1788073511 | 13.33° C | 74% | 853.8 hPa | 0 mm | - | 344 W/m² | - |
| 1788072911 | 12.22° C | 71% | 854.2 hPa | 0 mm | - | 205 W/m² | - |
| 1788072085 | 11.67° C | 76% | 854.2 hPa | 0 mm | - | 97 W/m² | - |
| 1788071712 | 11.67° C | 71% | 854.2 hPa | 0 mm | - | 115 W/m² | - |
| 1788071112 | 11.11° C | 77% | 854.3 hPa | 0 mm | - | 85 W/m² | - |
| 1788070285 | 11.11° C | 74% | 854.3 hPa | 0 mm | - | 42 W/m² | - |
| 1788069911 | 10.56° C | 77% | 854.3 hPa | 0 mm | - | 36 W/m² | - |
| 1788069312 | 10.56° C | 76% | 854.1 hPa | 0 mm | - | 30 W/m² | - |
| 1788068485 | 10.56° C | 75% | 853.9 hPa | 0 mm | - | 24 W/m² | - |
| 1788068112 | 10.56° C | 77% | 853.9 hPa | 0 mm | - | 24 W/m² | - |
| 1788067512 | 11.11° C | 72% | 853.8 hPa | 0 mm | - | 18 W/m² | - |
| 1788066685 | 11.11° C | 74% | 853.8 hPa | 0 mm | - | 12 W/m² | - |
| 1788066311 | 11.11° C | 74% | 853.7 hPa | 0 mm | - | 12 W/m² | - |
| 1788065711 | 11.67° C | 70% | 853.7 hPa | 0 mm | - | 6 W/m² | - |
| 1788064884 | 11.11° C | 74% | 853.7 hPa | 0 mm | - | 0 W/m² | - |
| 1788064511 | 11.11° C | 76% | 853.7 hPa | 0 mm | - | 0 W/m² | - |
| 1788063911 | 11.11° C | 74% | 853.7 hPa | 0 mm | - | 0 W/m² | - |
| 1788063084 | 11.67° C | 70% | 853.7 hPa | 0 mm | - | 0 W/m² | - |
| 1788062711 | 12.22° C | 65% | 853.7 hPa | 0 mm | - | 0 W/m² | - |
* Rain latest hour (hover to see other rain measurements)
** Current wind speed in m/s (hover to see current wind gust speed)